地図

経路データ

SID SEASON NUMBER BASIN SUBBASIN NAME ISO_TIME NATURE LAT LON WMO_WIND WMO_PRES WMO_AGENCY TRACK_TYPE DIST2LAND LANDFALL IFLAG USA_AGENCY USA_ATCF_ID USA_LAT USA_LON USA_RECORD USA_STATUS USA_WIND USA_PRES USA_SSHS USA_R34_NE USA_R34_SE USA_R34_SW USA_R34_NW USA_R50_NE USA_R50_SE USA_R50_SW USA_R50_NW USA_R64_NE USA_R64_SE USA_R64_SW USA_R64_NW USA_POCI USA_ROCI USA_RMW USA_EYE TOKYO_LAT TOKYO_LON TOKYO_GRADE TOKYO_WIND TOKYO_PRES TOKYO_R50_DIR TOKYO_R50_LONG TOKYO_R50_SHORT TOKYO_R30_DIR TOKYO_R30_LONG TOKYO_R30_SHORT TOKYO_LAND CMA_LAT CMA_LON CMA_CAT CMA_WIND CMA_PRES HKO_LAT HKO_LON HKO_CAT HKO_WIND HKO_PRES NEWDELHI_LAT NEWDELHI_LON NEWDELHI_GRADE NEWDELHI_WIND NEWDELHI_PRES NEWDELHI_CI NEWDELHI_DP NEWDELHI_POCI REUNION_LAT REUNION_LON REUNION_TYPE REUNION_WIND REUNION_PRES REUNION_TNUM REUNION_CI REUNION_RMW REUNION_R34_NE REUNION_R34_SE REUNION_R34_SW REUNION_R34_NW REUNION_R50_NE REUNION_R50_SE REUNION_R50_SW REUNION_R50_NW REUNION_R64_NE REUNION_R64_SE REUNION_R64_SW REUNION_R64_NW BOM_LAT BOM_LON BOM_TYPE BOM_WIND BOM_PRES BOM_TNUM BOM_CI BOM_RMW BOM_R34_NE BOM_R34_SE BOM_R34_SW BOM_R34_NW BOM_R50_NE BOM_R50_SE BOM_R50_SW BOM_R50_NW BOM_R64_NE BOM_R64_SE BOM_R64_SW BOM_R64_NW BOM_ROCI BOM_POCI BOM_EYE BOM_POS_METHOD BOM_PRES_METHOD NADI_LAT NADI_LON NADI_CAT NADI_WIND NADI_PRES WELLINGTON_LAT WELLINGTON_LON WELLINGTON_WIND WELLINGTON_PRES DS824_LAT DS824_LON DS824_STAGE DS824_WIND DS824_PRES TD9636_LAT TD9636_LON TD9636_STAGE TD9636_WIND TD9636_PRES TD9635_LAT TD9635_LON TD9635_WIND TD9635_PRES TD9635_ROCI NEUMANN_LAT NEUMANN_LON NEUMANN_CLASS NEUMANN_WIND NEUMANN_PRES MLC_LAT MLC_LON MLC_CLASS MLC_WIND MLC_PRES USA_GUST BOM_GUST BOM_GUST_PER REUNION_GUST REUNION_GUST_PER USA_SEAHGT USA_SEARAD_NE USA_SEARAD_SE USA_SEARAD_SW USA_SEARAD_NW STORM_SPEED STORM_DIR
1992155N10070 1992 36 NI AS NOT_NAMED 1992-06-03 06:00:00 NR 9.90000 70.3000 main 584 574 O_____________ jtwc_io IO021992 9.90000 70.3000 20 -1 1 61
1992155N10070 1992 36 NI AS NOT_NAMED 1992-06-03 09:00:00 NR 9.92750 70.3575 main 574 569 P_____________ IO021992 9.92750 70.3575 22 -1 1 43
1992155N10070 1992 36 NI AS NOT_NAMED 1992-06-03 12:00:00 NR 10.0000 70.4000 main 569 564 O_____________ jtwc_io IO021992 10.0000 70.4000 25 -1 2 16
1992155N10070 1992 36 NI AS NOT_NAMED 1992-06-03 15:00:00 NR 10.1425 70.4150 main 564 554 P_____________ IO021992 10.1425 70.4150 25 -1 3 0
1992155N10070 1992 36 NI AS NOT_NAMED 1992-06-03 18:00:00 NR 10.3000 70.4000 main 554 549 O_____________ jtwc_io IO021992 10.3000 70.4000 25 -1 3 352
1992155N10070 1992 36 NI AS NOT_NAMED 1992-06-03 21:00:00 NR 10.4225 70.3800 main 549 544 P_____________ IO021992 10.4225 70.3800 25 -1 2 333
1992155N10070 1992 36 NI AS NOT_NAMED 1992-06-04 00:00:00 NR 10.5000 70.3000 main 553 553 O_____________ jtwc_io IO021992 10.5000 70.3000 25 -1 3 294
1992155N10070 1992 36 NI AS NOT_NAMED 1992-06-04 03:00:00 NR 10.5225 70.1450 main 573 573 P_____________ IO021992 10.5225 70.1450 25 -1 4 270
1992155N10070 1992 36 NI AS NOT_NAMED 1992-06-04 06:00:00 NR 10.5000 69.9000 main 592 592 O_____________ jtwc_io IO021992 10.5000 69.9000 25 -1 6 264
1992155N10070 1992 36 NI AS NOT_NAMED 1992-06-04 09:00:00 NR 10.4650 69.5875 main 622 622 P_____________ IO021992 10.4650 69.5875 25 -1 7 262
1992155N10070 1992 36 NI AS NOT_NAMED 1992-06-04 12:00:00 NR 10.4000 69.2000 main 666 666 O_____________ jtwc_io IO021992 10.4000 69.2000 25 -1 8 258
1992155N10070 1992 36 NI AS NOT_NAMED 1992-06-04 15:00:00 NR 10.3000 68.7650 main 711 711 P_____________ IO021992 10.3000 68.7650 27 -1 9 257
1992155N10070 1992 36 NI AS NOT_NAMED 1992-06-04 18:00:00 NR 10.2000 68.3000 main 766 766 O_____________ jtwc_io IO021992 10.2000 68.3000 30 -1 9 260
1992155N10070 1992 36 NI AS NOT_NAMED 1992-06-04 21:00:00 NR 10.1349 67.8500 main 810 810 P_____________ IO021992 10.1349 67.8500 30 -1 9 264
1992155N10070 1992 36 NI AS NOT_NAMED 1992-06-05 00:00:00 NR 10.1000 67.4000 main 861 861 O_____________ jtwc_io IO021992 10.1000 67.4000 30 -1 9 267
1992155N10070 1992 36 NI AS NOT_NAMED 1992-06-05 03:00:00 NR 10.0924 66.9500 main 902 902 P_____________ IO021992 10.0924 66.9500 30 -1 9 270
1992155N10070 1992 36 NI AS NOT_NAMED 1992-06-05 06:00:00 NR 10.1000 66.5000 main 954 954 O_____________ jtwc_io IO021992 10.1000 66.5000 30 -1 9 270
1992155N10070 1992 36 NI AS NOT_NAMED 1992-06-05 09:00:00 NR 10.0924 66.0500 main 1006 1006 P_____________ IO021992 10.0924 66.0500 30 -1 9 270
1992155N10070 1992 36 NI AS NOT_NAMED 1992-06-05 12:00:00 NR 10.1000 65.6000 main 1047 1047 O_____________ jtwc_io IO021992 10.1000 65.6000 30 -1 9 273
1992155N10070 1992 36 NI AS NOT_NAMED 1992-06-05 15:00:00 NR 10.1425 65.1425 main 1100 1096 P_____________ IO021992 10.1425 65.1425 30 -1 9 276
1992155N10070 1992 36 NI AS NOT_NAMED 1992-06-05 18:00:00 NR 10.2000 64.7000 main 1138 1102 O_____________ jtwc_io IO021992 10.2000 64.7000 30 -1 9 277
1992155N10070 1992 36 NI AS NOT_NAMED 1992-06-05 21:00:00 NR 10.2499 64.2850 main 1102 1056 P_____________ IO021992 10.2499 64.2850 32 -1 8 277
1992155N10070 1992 36 NI AS NOT_NAMED 1992-06-06 00:00:00 NR 10.3000 63.9000 main 1056 1014 O_____________ jtwc_io IO021992 10.3000 63.9000 35 0 8 278
1992155N10070 1992 36 NI AS NOT_NAMED 1992-06-06 03:00:00 NR 10.3500 63.5200 main 1011 980 P_____________ IO021992 10.3500 63.5200 35 0 7 278
1992155N10070 1992 36 NI AS NOT_NAMED 1992-06-06 06:00:00 NR 10.4000 63.2000 main 980 958 O_____________ jtwc_io IO021992 10.4000 63.2000 35 0 6 280
1992155N10070 1992 36 NI AS NOT_NAMED 1992-06-06 09:00:00 NR 10.4500 62.9625 main 958 934 P_____________ IO021992 10.4500 62.9625 35 0 4 284
1992155N10070 1992 36 NI AS NOT_NAMED 1992-06-06 12:00:00 NR 10.5000 62.8000 main 934 924 O_____________ jtwc_io IO021992 10.5000 62.8000 35 0 3 288
1992155N10070 1992 36 NI AS NOT_NAMED 1992-06-06 15:00:00 NR 10.5425 62.6775 main 924 910 P_____________ IO021992 10.5425 62.6775 35 0 2 297
1992155N10070 1992 36 NI AS NOT_NAMED 1992-06-06 18:00:00 NR 10.6000 62.6000 main 910 897 O_____________ jtwc_io IO021992 10.6000 62.6000 35 0 2 318
1992155N10070 1992 36 NI AS NOT_NAMED 1992-06-06 21:00:00 NR 10.7000 62.5350 main 897 894 P_____________ IO021992 10.7000 62.5350 35 0 2 333
1992155N10070 1992 36 NI AS NOT_NAMED 1992-06-07 00:00:00 NR 10.8000 62.5000 main 894 892 O_____________ jtwc_io IO021992 10.8000 62.5000 35 0 2 340
1992155N10070 1992 36 NI AS NOT_NAMED 1992-06-07 03:00:00 NR 10.8575 62.4850 main 892 892 P_____________ IO021992 10.8575 62.4850 35 0 1 0
1992155N10070 1992 36 NI AS NOT_NAMED 1992-06-07 06:00:00 NR 10.9000 62.5000 main 892 892 O_____________ jtwc_io IO021992 10.9000 62.5000 35 0 1 28
1992155N10070 1992 36 NI AS NOT_NAMED 1992-06-07 09:00:00 NR 10.9500 62.5350 main 889 889 P_____________ IO021992 10.9500 62.5350 35 0 1 43
1992155N10070 1992 36 NI AS NOT_NAMED 1992-06-07 12:00:00 NR 11.0000 62.6000 main 900 900 O_____________ jtwc_io IO021992 11.0000 62.6000 35 0 2 57
1992155N10070 1992 36 NI AS NOT_NAMED 1992-06-07 15:00:00 NR 11.0500 62.6925 main 908 908 P_____________ IO021992 11.0500 62.6925 35 0 2 63
1992155N10070 1992 36 NI AS NOT_NAMED 1992-06-07 18:00:00 NR 11.1000 62.8000 main 919 919 O_____________ jtwc_io IO021992 11.1000 62.8000 35 0 2 63
1992155N10070 1992 36 NI AS NOT_NAMED 1992-06-07 21:00:00 NR 11.1500 62.9000 main 929 927 P_____________ IO021992 11.1500 62.9000 35 0 2 63
1992155N10070 1992 36 NI AS NOT_NAMED 1992-06-08 00:00:00 NR 11.2000 63.0000 1002 newdelhi main 938 938 O_____________ jtwc_io IO021992 11.2000 63.0000 35 0 2 66
1992155N10070 1992 36 NI AS NOT_NAMED 1992-06-08 03:00:00 NR 11.2425 63.1150 main 949 947 P_____________ IO021992 11.2425 63.1150 35 0 2 63
1992155N10070 1992 36 NI AS NOT_NAMED 1992-06-08 06:00:00 NR 11.3000 63.2000 1002 newdelhi main 958 956 O_____________ jtwc_io IO021992 11.3000 63.2000 35 0 2 36
1992155N10070 1992 36 NI AS NOT_NAMED 1992-06-08 09:00:00 NR 11.4000 63.2300 main 956 954 P_____________ IO021992 11.4000 63.2300 35 0 2 8
1992155N10070 1992 36 NI AS NOT_NAMED 1992-06-08 12:00:00 NR 11.5000 63.2000 25 1000 newdelhi main 954 942 O_____________ jtwc_io IO021992 11.5000 63.2000 35 0 2 324
1992155N10070 1992 36 NI AS NOT_NAMED 1992-06-08 15:00:00 NR 11.5575 63.1150 main 942 931 P_____________ IO021992 11.5575 63.1150 35 0 2 297
1992155N10070 1992 36 NI AS NOT_NAMED 1992-06-08 18:00:00 NR 11.6000 63.0000 25 1000 newdelhi main 931 920 O_____________ jtwc_io IO021992 11.6000 63.0000 35 0 2 295
1992155N10070 1992 36 NI AS NOT_NAMED 1992-06-08 21:00:00 NR 11.6500 62.9150 main 920 908 P_____________ IO021992 11.6500 62.9150 35 0 2 297
1992155N10070 1992 36 NI AS NOT_NAMED 1992-06-09 00:00:00 NR 11.7000 62.8000 25 998 newdelhi main 908 886 O_____________ jtwc_io IO021992 11.7000 62.8000 35 0 3 289
1992155N10070 1992 36 NI AS NOT_NAMED 1992-06-09 03:00:00 NR 11.7500 62.6150 main 885 863 P_____________ IO021992 11.7500 62.6150 35 0 4 284
1992155N10070 1992 36 NI AS NOT_NAMED 1992-06-09 06:00:00 NR 11.8000 62.4000 30 998 newdelhi main 863 842 O_____________ jtwc_io IO021992 11.8000 62.4000 35 0 4 284
1992155N10070 1992 36 NI AS NOT_NAMED 1992-06-09 09:00:00 NR 11.8500 62.2000 main 842 819 P_____________ IO021992 11.8500 62.2000 35 0 4 284
1992155N10070 1992 36 NI AS NOT_NAMED 1992-06-09 12:00:00 NR 11.9000 62.0000 30 998 newdelhi main 819 797 O_____________ jtwc_io IO021992 11.9000 62.0000 35 0 4 283
1992155N10070 1992 36 NI AS NOT_NAMED 1992-06-09 15:00:00 NR 11.9425 61.8000 main 797 742 P_____________ IO021992 11.9425 61.8000 35 0 7 278
1992155N10070 1992 36 NI AS NOT_NAMED 1992-06-09 18:00:00 NR 12.0000 61.2800 30 998 newdelhi main 742 708 O___O_________ jtwc_io IO021992 12.0000 61.6000 35 0 12.0000 60.0000 30 998 1.50000 6 1004 9 284
1992155N10070 1992 36 NI AS NOT_NAMED 1992-06-09 21:00:00 NR 12.1450 60.9508 main 708 674 P___P_________ IO021992 12.0925 61.4075 35 0 12.2999 60.0749 30 998 6 1004 7 299
1992155N10070 1992 36 NI AS NOT_NAMED 1992-06-10 00:00:00 NR 12.3286 60.6857 30 998 newdelhi main 674 641 O___O_________ jtwc_io IO021992 12.2000 61.2000 35 0 12.5000 60.0000 30 998 1.50000 6 1004 7 294
1992155N10070 1992 36 NI AS NOT_NAMED 1992-06-10 03:00:00 NR 12.4151 60.3350 main 630 608 P___P_________ IO021992 12.2925 60.9575 35 0 12.5376 59.7125 30 998 6 1004 6 282
1992155N10070 1992 36 NI AS NOT_NAMED 1992-06-10 06:00:00 NR 12.4500 60.1000 30 998 newdelhi main 608 608 O___O_________ jtwc_io IO021992 12.4000 60.7000 35 0 12.5000 59.5000 30 998 2.00000 6 1004 2 293
1992155N10070 1992 36 NI AS NOT_NAMED 1992-06-10 09:00:00 NR 12.5025 60.1299 main 608 608 P___P_________ IO021992 12.5424 60.4725 35 0 12.4625 59.7874 30 998 6 1004 2 0
1992155N10070 1992 36 NI AS NOT_NAMED 1992-06-10 12:00:00 NR 12.6000 60.1000 30 998 newdelhi main 608 564 O___O_________ jtwc_io IO021992 12.7000 60.2000 35 0 12.5000 60.0000 30 998 2.00000 6 1004 5 305
1992155N10070 1992 36 NI AS NOT_NAMED 1992-06-10 15:00:00 NR 12.7927 59.6990 main 564 511 P___P_________ IO021992 12.8350 59.8224 35 0 12.7504 59.5755 30 998 6 1004 10 295
1992155N10070 1992 36 NI AS NOT_NAMED 1992-06-10 18:00:00 NR 13.0000 59.2000 30 998 newdelhi main 511 480 O___O_________ jtwc_io IO021992 13.0000 59.4000 35 0 13.0000 59.0000 30 998 2.00000 6 1004 9 294
1992155N10070 1992 36 NI AS NOT_NAMED 1992-06-10 21:00:00 NR 13.1397 58.8937 main 480 449 P___P_________ IO021992 13.2424 59.0000 35 0 13.0370 58.7873 30 998 6 1004 7 292
1992155N10070 1992 36 NI AS NOT_NAMED 1992-06-11 00:00:00 NR 13.2500 58.5500 30 998 newdelhi main 451 387 O___O_________ jtwc_io IO021992 13.5000 58.6000 35 0 13.0000 58.5000 30 998 2.00000 6 1004 9 283
1992155N10070 1992 36 NI AS NOT_NAMED 1992-06-11 03:00:00 NR 13.3427 57.9973 main 387 326 P___P_________ IO021992 13.7224 58.2075 32 -1 12.9631 57.7872 32 997 7 1004 11 280
1992155N10070 1992 36 NI AS NOT_NAMED 1992-06-11 06:00:00 NR 13.4500 57.4000 35 996 newdelhi main 330 283 O___O_________ jtwc_io IO021992 13.9000 57.8000 30 -1 13.0000 57.0000 35 996 2.50000 8 1004 11 285
1992155N10070 1992 36 NI AS NOT_NAMED 1992-06-11 09:00:00 NR 13.6361 56.8914 main 283 254 P___P_________ IO021992 14.0225 57.3574 30 -1 13.2498 56.4254 40 995 9 1004 10 291
1992155N10070 1992 36 NI AS NOT_NAMED 1992-06-11 12:00:00 NR 13.8000 56.4500 45 994 newdelhi main 254 219 O___O_________ jtwc_io IO021992 14.1000 56.9000 30 -1 13.5000 56.0000 45 994 3.00000 10 1004 8 284
1992155N10070 1992 36 NI AS NOT_NAMED 1992-06-11 15:00:00 NR 13.8324 56.0811 main 219 194 P___P_________ IO021992 14.1649 56.4500 30 -1 13.4998 55.7122 45 994 10 1004 7 274
1992155N10070 1992 36 NI AS NOT_NAMED 1992-06-11 18:00:00 NR 13.8500 55.7500 45 994 newdelhi main 202 181 O___O_________ jtwc_io IO021992 14.2000 56.0000 30 -1 13.5000 55.5000 45 994 3.00000 10 1004 6 284
1992155N10070 1992 36 NI AS NOT_NAMED 1992-06-11 21:00:00 NR 13.9858 55.4563 main 190 179 P___P_________ IO021992 14.2224 55.5500 27 -1 13.7493 55.3625 40 995 9 1004 7 289
1992155N10070 1992 36 NI AS NOT_NAMED 1992-06-12 00:00:00 NR 14.0857 55.0429 35 996 newdelhi main 176 167 O___O_________ jtwc_io IO021992 14.2000 55.1000 25 -1 14.0000 55.0000 35 996 2.50000 8 1004 12 274
1992155N10070 1992 36 NI AS NOT_NAMED 1992-06-12 03:00:00 NR 14.0653 54.2165 main 167 156 P___P_________ IO021992 14.1177 54.6499 25 -1 14.0392 53.9998 30 998 6 1004 18 267
1992155N10070 1992 36 NI AS NOT_NAMED 1992-06-12 06:00:00 NR 14.0000 53.2400 25 1000 newdelhi main 158 158 O___O_________ jtwc_io IO021992 14.0000 54.2000 25 -1 14.0000 53.0000 25 1000 1.50000 4 1004 15 267
1992155N10070 1992 36 NI AS NOT_NAMED 1992-06-12 09:00:00 NR 13.9991 52.6750 main 174 173 ____P_________ IO021992 -1 13.9991 52.6750 25 1000 4 1004 7 270
1992155N10070 1992 36 NI AS NOT_NAMED 1992-06-12 12:00:00 NR 14.0000 52.5000 25 1000 newdelhi main 173 154 ____O_________ -1 14.0000 52.5000 25 1000 1.50000 4 1004 6 270
1992155N10070 1992 36 NI AS NOT_NAMED 1992-06-12 15:00:00 NR 14.0007 52.0875 main 154 134 ____P_________ -1 14.0007 52.0875 1001 3 1004 10 270
1992155N10070 1992 36 NI AS NOT_NAMED 1992-06-12 18:00:00 NR 14.0000 51.5000 1002 newdelhi main 134 ____O_________ -1 14.0000 51.5000 1002 0.00000 2 1004 11 270

IBTrACS Databaseについて

本データベースは、米国NOAAが公開する1842年以降の世界の熱帯低気圧のベストトラックデータアーカイブInternational Best Track Archive for Climate Stewardship (IBTrACS)を、ウェブで閲覧しやすい形式に変換したものです。

最終更新日:2021-11-26